createdAt,value
2018-09-26T00:00:06.657Z,29.87
2018-09-26T00:02:41.304Z,30.02
2018-09-26T00:05:11.244Z,30.21
2018-09-26T00:07:40.938Z,29.61
2018-09-26T00:10:10.829Z,30.44
2018-09-26T00:12:41.530Z,29.93
2018-09-26T00:15:11.303Z,29.90
2018-09-26T00:17:41.054Z,29.50
2018-09-26T00:20:11.330Z,30.05
2018-09-26T00:22:41.339Z,29.80
2018-09-26T00:25:11.139Z,29.42
2018-09-26T00:27:40.881Z,30.34
2018-09-26T00:30:11.174Z,30.92
2018-09-26T00:32:41.057Z,30.73
2018-09-26T00:35:10.890Z,31.06
2018-09-26T00:37:40.791Z,30.48
2018-09-26T00:40:10.651Z,31.09
2018-09-26T00:42:40.505Z,31.45
2018-09-26T00:45:10.195Z,31.41
2018-09-26T00:47:39.872Z,31.89
2018-09-26T00:50:09.765Z,31.97
2018-09-26T00:52:39.507Z,32.64
2018-09-26T00:55:09.389Z,31.48
2018-09-26T00:57:39.092Z,33.12
2018-09-26T01:00:08.869Z,34.13
2018-09-26T01:02:38.539Z,35.37
2018-09-26T01:05:08.446Z,34.54
2018-09-26T01:07:38.158Z,35.55
2018-09-26T01:10:08.148Z,34.11
2018-09-26T01:12:37.900Z,32.72
2018-09-26T01:15:07.697Z,33.56
2018-09-26T01:17:37.548Z,33.45
2018-09-26T01:20:07.387Z,33.84
2018-09-26T01:22:37.252Z,34.45
2018-09-26T01:25:07.518Z,31.18
2018-09-26T01:27:37.108Z,31.46
2018-09-26T01:30:07.677Z,36.23
2018-09-26T01:32:38.267Z,30.56
2018-09-26T01:35:08.085Z,29.90
2018-09-26T01:37:37.893Z,30.26
2018-09-26T01:40:07.818Z,32.92
2018-09-26T01:42:37.994Z,33.81
2018-09-26T01:45:07.845Z,34.53
2018-09-26T01:47:37.649Z,33.56
2018-09-26T01:50:07.440Z,31.14
2018-09-26T01:52:37.246Z,31.71
2018-09-26T01:55:07.096Z,31.75
2018-09-26T01:57:36.953Z,31.15
2018-09-26T02:00:07.077Z,30.65
2018-09-26T02:02:36.809Z,30.53
2018-09-26T02:05:06.624Z,30.02
2018-09-26T02:07:36.504Z,30.43
2018-09-26T02:10:07.053Z,30.14
2018-09-26T02:12:36.778Z,29.90
2018-09-26T02:15:06.602Z,30.53
2018-09-26T02:17:36.259Z,31.71
2018-09-26T02:20:06.149Z,32.62
2018-09-26T02:22:35.971Z,32.77
2018-09-26T02:25:05.959Z,32.65
2018-09-26T02:27:35.703Z,37.28
2018-09-26T02:30:05.540Z,32.29
2018-09-26T02:32:35.300Z,31.52
2018-09-26T02:35:05.539Z,35.64
2018-09-26T02:37:35.297Z,33.35
2018-09-26T02:40:05.270Z,31.49
2018-09-26T02:42:34.974Z,30.43
2018-09-26T02:45:04.701Z,30.76
2018-09-26T02:47:34.578Z,31.84
2018-09-26T02:50:04.441Z,31.82
2018-09-26T02:52:34.303Z,33.69
2018-09-26T02:55:04.172Z,32.69
2018-09-26T02:57:34.062Z,31.41
2018-09-26T03:00:03.957Z,32.17
2018-09-26T03:02:33.728Z,32.39
2018-09-26T03:05:03.445Z,32.50
2018-09-26T03:07:33.271Z,32.95
2018-09-26T03:10:02.977Z,30.47
2018-09-26T03:12:32.702Z,30.13
2018-09-26T03:15:02.554Z,29.75
2018-09-26T03:17:32.419Z,30.80
2018-09-26T03:20:02.279Z,31.53
2018-09-26T03:22:32.152Z,31.81
2018-09-26T03:25:02.196Z,31.18
2018-09-26T03:27:32.728Z,31.00
2018-09-26T03:30:03.151Z,30.56
2018-09-26T03:32:34.073Z,30.71
2018-09-26T03:35:04.386Z,30.72
2018-09-26T03:37:35.097Z,31.29
2018-09-26T03:40:04.859Z,30.74
2018-09-26T03:42:35.205Z,31.24
2018-09-26T03:45:05.156Z,30.94
2018-09-26T03:47:34.889Z,31.30
2018-09-26T03:50:04.622Z,31.68
2018-09-26T03:52:34.387Z,31.29
2018-09-26T03:55:04.212Z,32.20
2018-09-26T03:57:33.993Z,32.42
2018-09-26T04:00:03.590Z,31.94
2018-09-26T04:02:33.208Z,31.63
2018-09-26T04:05:02.980Z,32.25
2018-09-26T04:07:32.825Z,32.02
2018-09-26T04:10:02.627Z,31.99
2018-09-26T04:12:32.454Z,32.01
2018-09-26T04:15:02.340Z,31.30
2018-09-26T04:17:31.973Z,31.52
2018-09-26T04:20:01.692Z,31.95
2018-09-26T04:22:31.560Z,31.72
2018-09-26T04:25:01.534Z,32.58
2018-09-26T04:27:31.351Z,33.73
2018-09-26T04:30:01.056Z,33.63
2018-09-26T04:32:30.954Z,34.23
2018-09-26T04:35:00.684Z,34.21
2018-09-26T04:37:30.662Z,33.55
2018-09-26T04:40:00.717Z,33.53
2018-09-26T04:42:30.649Z,34.02
2018-09-26T04:45:00.352Z,33.90
2018-09-26T04:47:30.220Z,34.66
2018-09-26T04:49:59.942Z,35.59
2018-09-26T04:52:29.723Z,35.86
2018-09-26T04:54:59.482Z,34.14
2018-09-26T04:57:29.073Z,33.91
2018-09-26T04:59:59.055Z,34.19
2018-09-26T05:02:28.765Z,34.95
2018-09-26T05:04:58.645Z,33.57
2018-09-26T05:07:28.392Z,34.25
2018-09-26T05:09:58.209Z,33.72
2018-09-26T05:12:28.186Z,33.89
2018-09-26T05:14:58.028Z,33.44
2018-09-26T05:17:27.805Z,32.63
2018-09-26T05:19:58.009Z,32.12
2018-09-26T05:22:28.315Z,32.54
2018-09-26T05:24:57.948Z,32.31
2018-09-26T05:27:27.636Z,32.27
2018-09-26T05:29:57.386Z,32.69
2018-09-26T05:32:27.206Z,31.76
2018-09-26T05:34:56.988Z,31.48
2018-09-26T05:37:26.772Z,31.06
2018-09-26T05:39:56.592Z,30.61
2018-09-26T05:42:26.629Z,32.34
2018-09-26T05:44:56.433Z,31.68
2018-09-26T05:47:26.505Z,31.55
2018-09-26T05:49:56.332Z,31.38
2018-09-26T05:52:26.461Z,30.30
2018-09-26T05:54:57.041Z,35.23
2018-09-26T05:57:26.919Z,30.16
2018-09-26T05:59:56.721Z,31.29
2018-09-26T06:02:27.106Z,28.15
2018-09-26T06:04:56.854Z,27.06
2018-09-26T06:07:26.700Z,29.85
2018-09-26T06:09:56.490Z,25.59
2018-09-26T06:12:26.252Z,26.15
2018-09-26T06:14:56.104Z,25.84
2018-09-26T06:17:25.932Z,25.27
2018-09-26T06:19:55.675Z,25.75
2018-09-26T06:22:25.448Z,29.69
2018-09-26T06:24:55.337Z,25.37
2018-09-26T06:27:25.258Z,23.49
2018-09-26T06:29:55.055Z,27.28
2018-09-26T06:32:25.122Z,24.24
2018-09-26T06:34:55.090Z,23.61
2018-09-26T06:37:24.899Z,24.36
2018-09-26T06:39:54.733Z,24.41
2018-09-26T06:42:24.506Z,23.25
2018-09-26T06:44:54.533Z,22.52
2018-09-26T06:47:24.540Z,22.67
2018-09-26T06:49:54.437Z,24.59
2018-09-26T06:52:24.313Z,23.38
2018-09-26T06:54:54.241Z,21.94
2018-09-26T06:57:24.138Z,22.14
2018-09-26T06:59:53.957Z,22.12
2018-09-26T07:02:23.767Z,20.99
2018-09-26T07:04:53.633Z,21.12
2018-09-26T07:07:23.434Z,21.06
2018-09-26T07:09:53.345Z,21.78
2018-09-26T07:12:23.047Z,21.45
2018-09-26T07:14:52.739Z,21.28
2018-09-26T07:17:22.579Z,20.62
2018-09-26T07:19:52.493Z,20.17
2018-09-26T07:22:22.272Z,19.94
2018-09-26T07:24:52.029Z,19.15
2018-09-26T07:27:21.937Z,19.50
2018-09-26T07:29:51.796Z,18.97
2018-09-26T07:32:21.552Z,19.03
2018-09-26T07:34:51.377Z,18.93
2018-09-26T07:37:21.210Z,18.44
2018-09-26T07:39:51.124Z,18.14
2018-09-26T07:42:20.989Z,19.11
2018-09-26T07:44:50.694Z,17.55
2018-09-26T07:47:20.471Z,17.47
2018-09-26T07:49:50.305Z,18.88
2018-09-26T07:52:20.114Z,19.64
2018-09-26T07:54:49.929Z,16.57
2018-09-26T07:57:19.693Z,17.12
2018-09-26T07:59:49.559Z,17.47
2018-09-26T08:02:19.304Z,17.21
2018-09-26T08:04:49.280Z,16.45
2018-09-26T08:07:19.050Z,15.93
2018-09-26T08:09:48.874Z,16.04
2018-09-26T08:12:18.678Z,16.33
2018-09-26T08:14:48.451Z,16.65
2018-09-26T08:17:18.242Z,17.02
2018-09-26T08:19:47.982Z,17.26
2018-09-26T08:22:17.794Z,15.45
2018-09-26T08:24:47.668Z,15.22
2018-09-26T08:27:17.381Z,18.21
2018-09-26T08:29:47.253Z,17.13
2018-09-26T08:32:17.008Z,18.00
2018-09-26T08:34:46.844Z,17.91
2018-09-26T08:37:16.729Z,16.01
2018-09-26T08:39:46.484Z,15.52
2018-09-26T08:42:16.265Z,15.80
2018-09-26T08:44:46.085Z,16.04
2018-09-26T08:47:15.871Z,16.08
2018-09-26T08:49:45.901Z,17.09
2018-09-26T08:52:15.640Z,16.83
2018-09-26T08:54:45.440Z,17.51
2018-09-26T08:57:15.277Z,16.85
2018-09-26T08:59:45.070Z,17.52
2018-09-26T09:02:14.785Z,17.83
2018-09-26T09:04:44.553Z,17.41
2018-09-26T09:07:14.262Z,17.29
2018-09-26T09:09:44.167Z,16.65
2018-09-26T09:12:14.070Z,17.24
2018-09-26T09:14:44.062Z,16.92
2018-09-26T09:17:13.686Z,14.22
2018-09-26T09:19:43.460Z,16.48
2018-09-26T09:22:13.189Z,16.70
2018-09-26T09:24:42.998Z,17.76
2018-09-26T09:27:12.922Z,16.76
2018-09-26T09:29:42.662Z,17.31
2018-09-26T09:32:12.427Z,21.83
2018-09-26T09:34:42.312Z,20.50
2018-09-26T09:37:12.322Z,18.77
2018-09-26T09:39:42.088Z,18.88
2018-09-26T09:42:11.863Z,18.64
2018-09-26T09:44:41.554Z,18.33
2018-09-26T09:47:11.244Z,17.97
2018-09-26T09:49:41.036Z,17.60
2018-09-26T09:52:11.166Z,17.53
2018-09-26T09:54:40.988Z,16.79
2018-09-26T09:57:10.815Z,16.46
2018-09-26T09:59:40.523Z,16.98
2018-09-26T10:02:10.403Z,15.72
2018-09-26T10:04:40.130Z,16.97
2018-09-26T10:07:10.060Z,15.02
2018-09-26T10:09:39.953Z,14.54
2018-09-26T10:12:09.626Z,13.42
2018-09-26T10:14:39.458Z,13.12
2018-09-26T10:17:09.212Z,13.40
2018-09-26T10:19:38.917Z,12.95
2018-09-26T10:22:08.724Z,12.79
2018-09-26T10:24:38.780Z,12.97
2018-09-26T10:27:08.660Z,11.83
2018-09-26T10:29:38.327Z,11.10
2018-09-26T10:32:08.359Z,11.21
2018-09-26T10:34:38.200Z,10.43
2018-09-26T10:37:08.078Z,11.06
2018-09-26T10:39:37.946Z,11.25
2018-09-26T10:42:07.872Z,10.31
2018-09-26T10:44:37.700Z,9.45
2018-09-26T10:47:07.418Z,10.34
2018-09-26T10:49:37.307Z,9.62
2018-09-26T10:52:07.154Z,9.86
2018-09-26T10:54:37.299Z,9.26
2018-09-26T10:57:07.123Z,9.74
2018-09-26T10:59:36.942Z,9.15
2018-09-26T11:02:06.764Z,9.14
2018-09-26T11:04:36.623Z,9.94
2018-09-26T11:07:06.349Z,8.58
2018-09-26T11:09:36.250Z,8.67
2018-09-26T11:12:06.214Z,8.51
2018-09-26T11:14:36.082Z,9.66
2018-09-26T11:17:05.848Z,9.67
2018-09-26T11:19:35.574Z,10.36
2018-09-26T11:22:05.471Z,9.31
2018-09-26T11:24:35.462Z,8.48
2018-09-26T11:27:05.359Z,8.90
2018-09-26T11:29:35.502Z,9.60
2018-09-26T11:32:05.110Z,8.84
2018-09-26T11:34:34.952Z,8.95
2018-09-26T11:37:04.684Z,9.41
2018-09-26T11:39:34.571Z,9.24
2018-09-26T11:42:04.504Z,9.44
2018-09-26T11:44:34.472Z,8.96
2018-09-26T11:47:04.329Z,9.41
2018-09-26T11:49:34.198Z,10.65
2018-09-26T11:52:04.127Z,10.88
2018-09-26T11:54:33.994Z,10.74
2018-09-26T11:57:04.179Z,10.13
2018-09-26T11:59:33.906Z,8.95
2018-09-26T12:02:03.772Z,9.66
2018-09-26T12:04:33.539Z,9.95
2018-09-26T12:07:03.393Z,10.30
2018-09-26T12:09:33.363Z,10.67
2018-09-26T12:12:03.188Z,11.72
2018-09-26T12:14:32.965Z,11.50
2018-09-26T12:17:02.694Z,11.17
2018-09-26T12:19:32.426Z,11.70
2018-09-26T12:22:02.255Z,12.30
2018-09-26T12:24:32.076Z,11.18
2018-09-26T12:27:02.023Z,11.09
2018-09-26T12:29:31.723Z,11.23
2018-09-26T12:32:01.434Z,11.91
2018-09-26T12:34:31.357Z,12.62
2018-09-26T12:37:01.066Z,11.08
2018-09-26T12:39:30.989Z,11.59
2018-09-26T12:42:00.768Z,13.04
2018-09-26T12:44:30.569Z,14.42
2018-09-26T12:47:00.340Z,12.35
2018-09-26T12:49:30.080Z,13.22
2018-09-26T12:52:01.271Z,13.45
2018-09-26T12:54:30.902Z,13.09
2018-09-26T12:57:01.387Z,14.30
2018-09-26T12:59:32.035Z,14.64
2018-09-26T13:02:02.897Z,14.48
2018-09-26T13:04:33.365Z,14.80
2018-09-26T13:07:03.825Z,14.57
2018-09-26T13:09:34.012Z,15.48
2018-09-26T13:12:04.840Z,15.48
2018-09-26T13:14:35.374Z,15.61
2018-09-26T13:17:05.747Z,14.69
2018-09-26T13:19:36.243Z,15.17
2018-09-26T13:22:07.963Z,15.19
2018-09-26T13:24:38.372Z,14.26
2018-09-26T13:27:08.985Z,14.75
2018-09-26T13:29:39.050Z,15.16
2018-09-26T13:32:09.304Z,14.71
2018-09-26T13:34:38.995Z,14.96
2018-09-26T13:37:08.857Z,14.04
2018-09-26T13:39:39.427Z,16.09
2018-09-26T13:42:11.177Z,14.85
2018-09-26T13:44:41.011Z,13.94
2018-09-26T13:47:10.699Z,13.75
2018-09-26T13:49:40.437Z,13.06
2018-09-26T13:52:10.690Z,13.96
2018-09-26T13:54:40.643Z,14.52
2018-09-26T13:57:10.634Z,14.44
2018-09-26T13:59:40.812Z,14.89
2018-09-26T14:02:11.760Z,15.34
2018-09-26T14:04:41.889Z,16.01
2018-09-26T14:07:12.916Z,16.01
2018-09-26T14:09:44.048Z,15.34
2018-09-26T14:12:16.070Z,15.88
2018-09-26T14:14:46.946Z,15.95
2018-09-26T14:17:16.920Z,15.58
2018-09-26T14:19:47.000Z,15.27
2018-09-26T14:22:17.642Z,15.79
2018-09-26T14:24:47.698Z,16.76
2018-09-26T14:27:17.741Z,17.20
2018-09-26T14:29:48.335Z,15.54
2018-09-26T14:32:19.466Z,14.96
2018-09-26T14:34:50.480Z,14.32
2018-09-26T14:37:20.607Z,15.21
2018-09-26T14:39:50.722Z,17.14
2018-09-26T14:42:21.407Z,16.28
2018-09-26T14:44:51.461Z,17.22
2018-09-26T14:47:21.563Z,16.79
2018-09-26T14:49:51.673Z,17.51
2018-09-26T14:52:22.477Z,17.31
2018-09-26T14:54:52.621Z,16.66
2018-09-26T14:57:22.753Z,16.62
2018-09-26T14:59:53.080Z,16.22
2018-09-26T15:02:24.186Z,15.93
2018-09-26T15:04:54.813Z,15.66
2018-09-26T15:07:26.915Z,16.95
2018-09-26T15:09:57.820Z,17.68
2018-09-26T15:12:28.309Z,17.50
2018-09-26T15:14:58.350Z,18.85
2018-09-26T15:17:28.398Z,18.88
2018-09-26T15:19:58.549Z,18.14
2018-09-26T15:22:28.751Z,20.01
2018-09-26T15:24:59.188Z,20.30
2018-09-26T15:27:29.276Z,20.26
2018-09-26T15:29:59.418Z,20.26
2018-09-26T15:32:29.667Z,20.89
2018-09-26T15:34:59.874Z,20.54
2018-09-26T15:37:30.006Z,20.62
2018-09-26T15:40:00.251Z,20.80
2018-09-26T15:42:31.654Z,20.03
2018-09-26T15:45:01.983Z,20.44
2018-09-26T15:47:32.188Z,19.18
2018-09-26T15:50:02.355Z,20.67
2018-09-26T15:52:32.450Z,20.50
2018-09-26T15:55:02.602Z,20.63
2018-09-26T15:57:32.826Z,21.02
2018-09-26T16:00:03.575Z,21.31
2018-09-26T16:02:34.675Z,20.99
2018-09-26T16:05:06.014Z,21.17
2018-09-26T16:07:36.168Z,20.96
2018-09-26T16:10:07.303Z,21.42
2018-09-26T16:12:38.599Z,22.42
2018-09-26T16:15:08.815Z,22.33
2018-09-26T16:17:38.949Z,22.77
2018-09-26T16:20:09.240Z,23.11
2018-09-26T16:22:40.097Z,23.74
2018-09-26T16:25:10.944Z,23.69
2018-09-26T16:27:41.093Z,24.29
2018-09-26T16:30:11.760Z,23.24
2018-09-26T16:32:42.384Z,23.71
2018-09-26T16:35:12.722Z,30.35
2018-09-26T16:37:42.972Z,24.62
2018-09-26T16:40:13.131Z,24.10
2018-09-26T16:42:45.289Z,24.41
2018-09-26T16:45:15.471Z,24.40
2018-09-26T16:47:45.694Z,23.89
2018-09-26T16:50:15.891Z,24.02
2018-09-26T16:52:46.581Z,23.32
2018-09-26T16:55:16.721Z,23.92
2018-09-26T16:57:46.899Z,23.72
2018-09-26T17:00:17.357Z,24.30
2018-09-26T17:02:47.669Z,24.46
2018-09-26T17:05:18.069Z,24.76
2018-09-26T17:07:48.382Z,24.87
2018-09-26T17:10:18.555Z,24.64
2018-09-26T17:12:49.405Z,23.25
2018-09-26T17:15:20.148Z,24.39
2018-09-26T17:17:50.218Z,24.60
2018-09-26T17:20:20.381Z,25.58
2018-09-26T17:22:52.075Z,25.65
2018-09-26T17:25:22.269Z,24.52
2018-09-26T17:27:53.303Z,24.95
2018-09-26T17:30:23.856Z,23.90
2018-09-26T17:32:53.931Z,23.94
2018-09-26T17:35:24.269Z,24.25
2018-09-26T17:37:54.806Z,24.18
2018-09-26T17:40:25.049Z,24.15
2018-09-26T17:42:55.909Z,25.16
2018-09-26T17:45:26.016Z,24.37
2018-09-26T17:47:57.265Z,24.72
2018-09-26T17:50:27.385Z,27.50
2018-09-26T17:52:58.168Z,24.25
2018-09-26T17:55:28.504Z,26.26
2018-09-26T17:57:58.919Z,27.02
2018-09-26T18:00:29.580Z,26.16
2018-09-26T18:03:00.151Z,25.61
2018-09-26T18:05:30.450Z,26.08
2018-09-26T18:08:00.578Z,26.24
2018-09-26T18:10:30.850Z,27.50
2018-09-26T18:13:02.684Z,27.59
2018-09-26T18:15:32.985Z,26.99
2018-09-26T18:18:02.988Z,26.79
2018-09-26T18:20:33.133Z,27.18
2018-09-26T18:23:04.553Z,26.59
2018-09-26T18:25:36.072Z,30.43
2018-09-26T18:28:06.247Z,26.54
2018-09-26T18:30:36.755Z,27.32
2018-09-26T18:33:09.114Z,26.62
2018-09-26T18:35:39.440Z,31.13
2018-09-26T18:38:09.906Z,27.48
2018-09-26T18:40:40.941Z,26.91
2018-09-26T18:43:12.158Z,26.61
2018-09-26T18:45:43.183Z,27.49
2018-09-26T18:48:13.354Z,28.65
2018-09-26T18:50:43.460Z,28.00
2018-09-26T18:53:14.870Z,26.88
2018-09-26T18:55:45.042Z,27.18
2018-09-26T18:58:15.498Z,26.75
2018-09-26T19:00:45.840Z,29.66
2018-09-26T19:03:16.212Z,26.82
2018-09-26T19:05:46.897Z,27.38
2018-09-26T19:08:17.088Z,26.47
2018-09-26T19:10:47.588Z,29.29
2018-09-26T19:13:18.494Z,26.50
2018-09-26T19:15:48.682Z,27.12
2018-09-26T19:18:23.192Z,26.71
2018-09-26T19:20:53.316Z,27.23
2018-09-26T19:23:24.486Z,27.53
2018-09-26T19:25:54.682Z,27.94
2018-09-26T19:28:24.854Z,28.14
2018-09-26T19:30:56.362Z,27.42
2018-09-26T19:33:27.842Z,28.27
2018-09-26T19:35:58.839Z,27.31
2018-09-26T19:38:29.722Z,27.26
2018-09-26T19:41:00.133Z,26.72
2018-09-26T19:43:31.773Z,26.31
2018-09-26T19:46:03.386Z,26.36
2018-09-26T19:48:34.576Z,26.38
2018-09-26T19:51:05.148Z,26.80
2018-09-26T19:53:36.814Z,26.39
2018-09-26T19:56:06.956Z,25.74
2018-09-26T19:58:38.183Z,25.42
2018-09-26T20:01:09.427Z,26.97
2018-09-26T20:03:40.463Z,28.21
2018-09-26T20:06:10.861Z,27.52
2018-09-26T20:08:42.699Z,27.55
2018-09-26T20:11:12.821Z,26.50
2018-09-26T20:13:43.444Z,27.83
2018-09-26T20:16:13.638Z,28.38
2018-09-26T20:18:43.757Z,27.50
2018-09-26T20:21:13.870Z,27.16
2018-09-26T20:23:45.064Z,28.52
2018-09-26T20:26:16.268Z,28.82
2018-09-26T20:28:48.423Z,29.03
2018-09-26T20:31:18.745Z,28.86
2018-09-26T20:33:50.014Z,30.18
2018-09-26T20:36:20.239Z,30.21
2018-09-26T20:38:51.209Z,32.70
2018-09-26T20:41:21.460Z,29.49
2018-09-26T20:43:52.456Z,29.80
2018-09-26T20:46:22.597Z,29.89
2018-09-26T20:48:53.070Z,29.02
2018-09-26T20:51:23.177Z,29.70
2018-09-26T20:53:53.940Z,29.01
2018-09-26T20:56:24.075Z,29.98
2018-09-26T20:58:54.335Z,30.72
2018-09-26T21:01:24.831Z,31.02
2018-09-26T21:03:55.693Z,31.67
2018-09-26T21:06:25.869Z,29.11
2018-09-26T21:08:55.981Z,29.42
2018-09-26T21:11:26.136Z,29.34
2018-09-26T21:13:56.423Z,30.75
2018-09-26T21:16:26.514Z,30.00
2018-09-26T21:18:57.199Z,31.25
2018-09-26T21:21:27.386Z,31.38
2018-09-26T21:23:58.252Z,29.75
2018-09-26T21:26:29.784Z,29.86
2018-09-26T21:29:00.686Z,30.92
2018-09-26T21:31:30.775Z,32.34
2018-09-26T21:34:02.059Z,30.28
2018-09-26T21:36:32.197Z,32.11
2018-09-26T21:39:03.428Z,30.53
2018-09-26T21:41:33.571Z,30.47
2018-09-26T21:44:03.921Z,32.19
2018-09-26T21:46:34.589Z,31.22
2018-09-26T21:49:05.668Z,30.23
2018-09-26T21:51:35.791Z,30.14
2018-09-26T21:54:06.906Z,30.12
2018-09-26T21:56:37.739Z,31.90
2018-09-26T21:59:08.175Z,30.41
2018-09-26T22:01:38.521Z,37.46
2018-09-26T22:04:09.664Z,31.09
2018-09-26T22:06:39.754Z,32.59
2018-09-26T22:09:10.199Z,31.58
2018-09-26T22:11:40.271Z,31.34
2018-09-26T22:14:10.464Z,32.29
2018-09-26T22:16:40.569Z,32.07
2018-09-26T22:19:10.694Z,31.88
2018-09-26T22:21:40.802Z,37.84
2018-09-26T22:24:11.412Z,31.60
2018-09-26T22:26:41.561Z,31.02
2018-09-26T22:29:11.604Z,31.57
2018-09-26T22:31:41.702Z,31.49
2018-09-26T22:34:12.723Z,31.86
2018-09-26T22:36:42.826Z,33.49
2018-09-26T22:39:12.907Z,31.85
2018-09-26T22:41:42.997Z,32.61
2018-09-26T22:44:13.964Z,36.65
2018-09-26T22:46:44.072Z,31.86
2018-09-26T22:49:14.143Z,33.22
2018-09-26T22:51:44.373Z,31.21
2018-09-26T22:54:14.449Z,31.66
2018-09-26T22:56:44.392Z,32.19
2018-09-26T22:59:14.331Z,32.47
2018-09-26T23:01:44.432Z,31.86
2018-09-26T23:04:15.161Z,31.48
2018-09-26T23:06:45.240Z,32.17
2018-09-26T23:09:15.273Z,33.90
2018-09-26T23:11:45.223Z,31.52
2018-09-26T23:14:15.177Z,31.03
2018-09-26T23:16:45.029Z,31.72
2018-09-26T23:19:14.962Z,31.90
2018-09-26T23:21:44.990Z,30.93
2018-09-26T23:24:15.007Z,32.20
2018-09-26T23:26:44.991Z,32.13
2018-09-26T23:29:14.971Z,31.76
2018-09-26T23:31:44.913Z,32.11
2018-09-26T23:34:14.915Z,32.78
2018-09-26T23:36:44.830Z,38.77
2018-09-26T23:39:14.752Z,46.07
2018-09-26T23:41:44.683Z,37.20
2018-09-26T23:44:14.625Z,33.56
2018-09-26T23:46:44.462Z,33.53
2018-09-26T23:49:14.424Z,33.89
2018-09-26T23:51:44.776Z,32.31
2018-09-26T23:54:15.426Z,33.58
2018-09-26T23:56:45.590Z,32.76
2018-09-26T23:59:15.208Z,33.78
